Margaux — 5VEH9 — position and weather

sailwx.info

Track history (hours):
 
Tides and Currents Weather Stations Pressure Air Temp Water Temp Dewpoint Dewpoint Depression Visibility Wind Speed Wind Dir Waves Ship Positions

Margaux

Last reported at 2017-Dec-16 21:42 UTC. Time now 2017-Dec-17 04:29 UTC.
Position N 35°37' E 027°30'.

Length 126 m; draft 8 m.

Type: Cargo ship. MMSI: 671782000.

Date/timePositionNaut miles runAvg speedWind from/ knotsBaromVisibWave heightAir tempDewpointWater temp
2017-Dec-16 21:42N 35°37' E 027°30'7510.2
2017-Dec-16 14:18N 36°43' E 026°46'710.5
2017-Dec-16 13:35N 36°50' E 026°42'110.4
2017-Dec-16 13:29N 36°51' E 026°42'7 9.9
2017-Dec-16 12:49N 36°57' E 026°38'4 9.8
2017-Dec-16 12:26N 37°00' E 026°36'410.1
2017-Dec-16 12:00N 37°04' E 026°34'510.4
2017-Dec-16 11:31N 37°08' E 026°30'510.5
2017-Dec-16 11:00N 37°12' E 026°25'510.3
2017-Dec-16 10:30N 37°14' E 026°19'510.2
2017-Dec-16 10:01N 37°17' E 026°14'510.4
2017-Dec-16 09:31N 37°20' E 026°08'510.1
2017-Dec-16 09:01N 37°22' E 026°03'5 9.9
2017-Dec-16 08:31N 37°26' E 025°58'510.3
2017-Dec-16 08:01N 37°30' E 025°56'610.3
2017-Dec-16 07:28N 37°36' E 025°54'7 9.7
2017-Dec-16 06:46N 37°42' E 025°52'7 9.6
2017-Dec-16 06:05N 37°49' E 025°51'1 9.8
2017-Dec-16 06:01N 37°50' E 025°50'510.0
2017-Dec-16 05:30N 37°55' E 025°49'228 8.4
2017-Dec-15 02:30N 40°54' E 028°51'43511.0
2017-Dec-13 10:55N 44°31' E 037°24'511.8
2017-Dec-13 10:31N 44°32' E 037°30'611.8
2017-Dec-13 10:01N 44°33' E 037°38'612.3
2017-Dec-13 09:31N 44°36' E 037°46'5 9.5
2017-Dec-13 09:00N 44°39' E 037°50'4 7.7
2017-Dec-13 08:31N 44°43' E 037°48'1 2.6
2017-Dec-13 08:01N 44°43' E 037°47'0 0.0
2017-Dec-13 07:31N 44°43' E 037°47'0 0.0
2017-Dec-13 07:01N 44°43' E 037°47'0 0.0
2017-Dec-13 06:31N 44°43' E 037°47'0 0.0
2017-Dec-13 06:01N 44°43' E 037°47'0 0.0
2017-Dec-13 05:31N 44°43' E 037°47'0 0.0
2017-Dec-13 05:01N 44°43' E 037°47'0 0.0
2017-Dec-13 04:31N 44°43' E 037°47'0 0.0
2017-Dec-13 04:01N 44°43' E 037°47'0 0.0
2017-Dec-13 03:31N 44°43' E 037°47'0 0.0
2017-Dec-13 03:00N 44°43' E 037°47'0 0.0
2017-Dec-13 02:31N 44°43' E 037°47'0 0.0
2017-Dec-13 02:01N 44°43' E 037°47'0 0.0
2017-Dec-13 01:31N 44°43' E 037°47'0 0.0
2017-Dec-13 01:01N 44°43' E 037°47'0 0.0
2017-Dec-13 00:31N 44°43' E 037°47'0 0.0
2017-Dec-13 00:00N 44°43' E 037°47'0 0.0
2017-Dec-12 23:31N 44°43' E 037°47'0 0.0
2017-Dec-12 23:01N 44°43' E 037°47'0 0.0
2017-Dec-12 22:31N 44°43' E 037°47'0 0.0
2017-Dec-12 22:01N 44°43' E 037°47'0 0.0
2017-Dec-12 21:31N 44°43' E 037°47'0 0.0
2017-Dec-12 21:01N 44°43' E 037°47'0 0.0
2017-Dec-12 20:31N 44°43' E 037°47'0 0.0
2017-Dec-12 20:01N 44°43' E 037°47'0 0.0
2017-Dec-12 19:31N 44°43' E 037°47'0 0.0
2017-Dec-12 19:01N 44°43' E 037°47'0 0.0
2017-Dec-12 18:31N 44°43' E 037°47'0 0.0
2017-Dec-12 18:01N 44°43' E 037°47'0 0.0
2017-Dec-12 17:31N 44°43' E 037°47'0 0.0
2017-Dec-12 17:01N 44°43' E 037°47'0 0.0
2017-Dec-12 16:31N 44°43' E 037°47'0 0.0
2017-Dec-12 16:01N 44°43' E 037°47'0 0.0
2017-Dec-12 15:31N 44°43' E 037°47'0 0.0
2017-Dec-12 15:01N 44°43' E 037°47'0 0.0
2017-Dec-12 14:31N 44°43' E 037°47'0 0.0
2017-Dec-12 14:01N 44°43' E 037°47'0 0.0
2017-Dec-12 13:31N 44°43' E 037°47'0 0.0
2017-Dec-12 13:00N 44°43' E 037°47'0 0.0
2017-Dec-12 12:31N 44°43' E 037°47'0 0.0
2017-Dec-12 12:01N 44°43' E 037°47'0 0.0
2017-Dec-12 11:31N 44°43' E 037°47'0 0.0
2017-Dec-12 11:00N 44°43' E 037°47'0 0.0
2017-Dec-12 10:31N 44°43' E 037°47'0 0.0
2017-Dec-12 10:01N 44°43' E 037°47'0 0.0
2017-Dec-12 09:31N 44°43' E 037°47'0 0.0
2017-Dec-12 09:01N 44°43' E 037°47'0 0.0
2017-Dec-12 08:31N 44°43' E 037°47'0 0.0
2017-Dec-12 08:01N 44°43' E 037°47'0 0.0
2017-Dec-12 07:31N 44°43' E 037°47'0 0.0
2017-Dec-12 07:01N 44°43' E 037°47'0 0.0
2017-Dec-12 06:31N 44°43' E 037°47'0 0.0
2017-Dec-12 06:01N 44°43' E 037°47'0 0.0
2017-Dec-12 05:31N 44°43' E 037°47'0 0.0
2017-Dec-12 05:01N 44°43' E 037°47'0 0.0
2017-Dec-12 04:31N 44°43' E 037°47'0 0.0
2017-Dec-12 04:01N 44°43' E 037°47'0 0.0
2017-Dec-12 03:31N 44°43' E 037°47'0 0.0
2017-Dec-12 03:01N 44°43' E 037°47'0 0.0
2017-Dec-12 02:31N 44°43' E 037°47'0 0.0
2017-Dec-12 02:01N 44°43' E 037°47'0 0.0
2017-Dec-12 01:31N 44°43' E 037°47'0 0.0
2017-Dec-12 01:01N 44°43' E 037°47'0 0.0
2017-Dec-12 00:30N 44°43' E 037°47'0 0.0
2017-Dec-12 00:01N 44°43' E 037°47'0 0.0
2017-Dec-11 23:31N 44°43' E 037°47'0 0.0
2017-Dec-11 23:01N 44°43' E 037°47'0 0.0
2017-Dec-11 22:31N 44°43' E 037°47'0 0.0
2017-Dec-11 22:01N 44°43' E 037°47'0 0.0
2017-Dec-11 21:31N 44°43' E 037°47'0 0.0
2017-Dec-11 21:01N 44°43' E 037°47'0 0.0
2017-Dec-11 20:31N 44°43' E 037°47'0 0.0
2017-Dec-11 20:01N 44°43' E 037°47'0 0.0
2017-Dec-11 19:31N 44°43' E 037°47'0 0.0
2017-Dec-11 19:01N 44°43' E 037°47'0 0.0
2017-Dec-11 18:31N 44°43' E 037°47'0 0.0
2017-Dec-11 18:01N 44°43' E 037°47'0 0.0
2017-Dec-11 17:31N 44°43' E 037°47'0 0.0
2017-Dec-11 17:01N 44°43' E 037°47'0 0.0
2017-Dec-11 16:31N 44°43' E 037°47'0 0.0
2017-Dec-11 16:01N 44°43' E 037°47'0 0.0
2017-Dec-11 15:31N 44°43' E 037°47'0 0.0
2017-Dec-11 15:01N 44°43' E 037°47'0 0.0
2017-Dec-11 14:31N 44°43' E 037°47'0 0.0
2017-Dec-11 14:01N 44°43' E 037°47'0 0.0
2017-Dec-11 13:31N 44°43' E 037°47'0 0.0
2017-Dec-11 13:01N 44°43' E 037°47'0 0.0
2017-Dec-11 12:31N 44°43' E 037°47'0 0.0
2017-Dec-11 12:01N 44°43' E 037°47'0 0.0
2017-Dec-11 11:31N 44°43' E 037°47'0 0.0
2017-Dec-11 11:01N 44°43' E 037°47'0 0.0
2017-Dec-11 10:31N 44°43' E 037°47'0 0.0
2017-Dec-11 10:01N 44°43' E 037°47'0 0.0
2017-Dec-11 09:31N 44°43' E 037°47'0 0.0
2017-Dec-11 09:00N 44°43' E 037°47'0 0.0
2017-Dec-11 08:30N 44°43' E 037°47'0 0.0
2017-Dec-11 08:01N 44°43' E 037°47'0 0.0
2017-Dec-11 07:30N 44°43' E 037°47'0 0.0
2017-Dec-11 07:01N 44°43' E 037°47'0 0.0
2017-Dec-11 06:31N 44°43' E 037°47'0 0.0
2017-Dec-11 06:01N 44°43' E 037°47'0 0.0
2017-Dec-11 05:31N 44°43' E 037°47'0 0.0
2017-Dec-11 05:01N 44°43' E 037°47'0 0.0
2017-Dec-11 04:31N 44°43' E 037°47'0 0.0
2017-Dec-11 04:01N 44°43' E 037°47'0 0.0
2017-Dec-11 03:31N 44°43' E 037°47'0 0.0
2017-Dec-11 03:01N 44°43' E 037°47'0 0.0
2017-Dec-11 02:31N 44°43' E 037°47'0 0.0
2017-Dec-11 02:01N 44°43' E 037°47'0 0.0
2017-Dec-11 01:31N 44°43' E 037°47'0 0.0
2017-Dec-11 01:01N 44°43' E 037°47'0 0.0
2017-Dec-11 00:30N 44°43' E 037°47'0 0.0
2017-Dec-11 00:01N 44°43' E 037°47'0 0.0
2017-Dec-10 23:31N 44°43' E 037°47'0 0.0
2017-Dec-10 23:01N 44°43' E 037°47'0 0.0
2017-Dec-10 22:31N 44°43' E 037°47'0 0.0
2017-Dec-10 22:01N 44°43' E 037°47'0 0.0
2017-Dec-10 21:31N 44°43' E 037°47'0 0.0
2017-Dec-10 21:01N 44°43' E 037°47'0 0.0
2017-Dec-10 20:13N 44°43' E 037°47'0 0.0
2017-Dec-10 20:01N 44°43' E 037°47'0 0.0
2017-Dec-10 19:31N 44°43' E 037°47'0 0.0
2017-Dec-10 19:01N 44°43' E 037°47'0 0.0
2017-Dec-10 18:31N 44°43' E 037°47'0 0.0
2017-Dec-10 18:00N 44°43' E 037°47'0 0.0
2017-Dec-10 17:31N 44°43' E 037°47'0 0.0
2017-Dec-10 17:00N 44°43' E 037°47'0 0.0
2017-Dec-10 16:31N 44°43' E 037°47'0 0.0
2017-Dec-10 16:00N 44°43' E 037°47'0 0.0
2017-Dec-10 15:31N 44°43' E 037°47'0 0.0
2017-Dec-10 15:00N 44°43' E 037°47'0 0.0
2017-Dec-10 14:31N 44°43' E 037°47'0 0.0
2017-Dec-10 14:01N 44°43' E 037°47'0 0.0
2017-Dec-10 13:31N 44°43' E 037°47'0 0.0
2017-Dec-10 13:01N 44°43' E 037°47'0 0.0
2017-Dec-10 12:31N 44°43' E 037°47'0 0.0
2017-Dec-10 12:01N 44°43' E 037°47'0 0.0
2017-Dec-10 11:31N 44°43' E 037°47'0 0.0
2017-Dec-10 11:01N 44°43' E 037°47'0 0.0
2017-Dec-10 10:30N 44°43' E 037°47'0 0.0
2017-Dec-10 10:01N 44°43' E 037°47'0 0.0
2017-Dec-10 09:31N 44°43' E 037°47'0 0.0
2017-Dec-10 09:01N 44°43' E 037°47'0 0.0
2017-Dec-10 08:31N 44°43' E 037°47'0 0.0
2017-Dec-10 08:01N 44°43' E 037°47'0 0.0
2017-Dec-10 07:31N 44°43' E 037°47'0 0.0
2017-Dec-10 07:01N 44°43' E 037°47'0 0.0
2017-Dec-10 06:31N 44°43' E 037°47'0 0.0
2017-Dec-10 06:01N 44°43' E 037°47'0 0.0
2017-Dec-10 05:31N 44°43' E 037°47'0 0.0
2017-Dec-10 05:01N 44°43' E 037°47'0 0.0
2017-Dec-10 04:31N 44°43' E 037°47'0 0.0
2017-Dec-10 04:01N 44°43' E 037°47'0 0.0
2017-Dec-10 03:31N 44°43' E 037°47'0 0.0
2017-Dec-10 03:00N 44°43' E 037°47'0 0.0
2017-Dec-10 02:30N 44°43' E 037°47'0 0.0
2017-Dec-10 02:01N 44°43' E 037°47'0 0.0
2017-Dec-10 01:31N 44°43' E 037°47'0 0.0
2017-Dec-10 01:01N 44°43' E 037°47'0 0.0
2017-Dec-10 00:31N 44°43' E 037°47'0 0.0
2017-Dec-10 00:01N 44°43' E 037°47'0 0.0
2017-Dec-09 23:31N 44°43' E 037°47'0 0.0
2017-Dec-09 23:01N 44°43' E 037°47'0 0.0
2017-Dec-09 22:31N 44°43' E 037°47'0 0.0
2017-Dec-09 22:01N 44°43' E 037°47'0 0.0
2017-Dec-09 21:24N 44°43' E 037°47'0 0.0
2017-Dec-09 21:01N 44°43' E 037°47'0 0.0
2017-Dec-09 20:31N 44°43' E 037°47'0 0.0
2017-Dec-09 20:01N 44°43' E 037°47'0 0.0
2017-Dec-09 19:31N 44°43' E 037°47'0 0.0
2017-Dec-09 19:01N 44°43' E 037°47'0 0.0
2017-Dec-09 18:31N 44°43' E 037°47'0 0.0
2017-Dec-09 18:01N 44°43' E 037°47'0 0.0
2017-Dec-09 17:31N 44°43' E 037°47'0 0.0
2017-Dec-09 17:01N 44°43' E 037°47'0 0.0
2017-Dec-09 16:31N 44°43' E 037°47'0 0.0
2017-Dec-09 16:00N 44°43' E 037°47'0 0.0
2017-Dec-09 15:31N 44°43' E 037°47'0 0.0
2017-Dec-09 15:00N 44°43' E 037°47'0 0.0
2017-Dec-09 14:31N 44°43' E 037°47'0 0.0
2017-Dec-09 14:01N 44°43' E 037°47'0 0.0
2017-Dec-09 13:31N 44°43' E 037°47'0 0.0
2017-Dec-09 13:01N 44°43' E 037°47'0 0.0
2017-Dec-09 12:31N 44°43' E 037°47'0 0.0
2017-Dec-09 12:01N 44°43' E 037°47'0 0.0
2017-Dec-09 11:31N 44°43' E 037°47'0 0.0
2017-Dec-09 11:01N 44°43' E 037°47'0 0.0
2017-Dec-09 10:31N 44°43' E 037°47'0 0.0
2017-Dec-09 10:01N 44°43' E 037°47'0 0.0
2017-Dec-09 09:31N 44°43' E 037°47'0 0.0
2017-Dec-09 09:01N 44°43' E 037°47'0 0.0
2017-Dec-09 08:31N 44°43' E 037°47'0 0.0
2017-Dec-09 08:01N 44°43' E 037°47'0 0.0
2017-Dec-09 07:31N 44°43' E 037°47'0 0.0
2017-Dec-09 07:01N 44°43' E 037°47'0 0.0
2017-Dec-09 06:31N 44°43' E 037°47'0 0.0
2017-Dec-09 06:01N 44°43' E 037°47'0 0.0
2017-Dec-09 05:30N 44°43' E 037°47'0 0.0
2017-Dec-09 05:01N 44°43' E 037°47'0 0.0
2017-Dec-09 04:31N 44°43' E 037°47'0 0.0
2017-Dec-09 04:01N 44°43' E 037°47'0 0.0
2017-Dec-09 03:31N 44°43' E 037°47'0 0.0
2017-Dec-09 03:00N 44°43' E 037°47'0 0.0
2017-Dec-09 02:31N 44°43' E 037°47'0 0.0
2017-Dec-09 02:01N 44°43' E 037°47'0 0.0
2017-Dec-09 01:31N 44°43' E 037°47'0 0.0
2017-Dec-09 01:01N 44°43' E 037°47'0 0.0
2017-Dec-09 00:31N 44°43' E 037°47'0 0.0
2017-Dec-09 00:00N 44°43' E 037°47'0 0.0
2017-Dec-08 23:31N 44°43' E 037°47'0 0.0
2017-Dec-08 23:00N 44°43' E 037°47'0 0.0
2017-Dec-08 22:30N 44°43' E 037°47'0 0.0
2017-Dec-08 22:01N 44°43' E 037°47'0 0.0
2017-Dec-08 21:31N 44°43' E 037°47'0 0.0
2017-Dec-08 21:00N 44°43' E 037°47'0 0.0
2017-Dec-08 20:31N 44°43' E 037°47'0 0.0
2017-Dec-08 20:01N 44°43' E 037°47'0 0.0
2017-Dec-08 19:30N 44°43' E 037°47'0 0.0
2017-Dec-08 19:01N 44°43' E 037°47'0 0.0
2017-Dec-08 18:31N 44°43' E 037°47'0 0.0
2017-Dec-08 18:01N 44°43' E 037°47'0 0.0
2017-Dec-08 17:31N 44°43' E 037°47'0 0.0
2017-Dec-08 17:00N 44°43' E 037°47'0 0.0
2017-Dec-08 16:31N 44°43' E 037°47'0 0.0
2017-Dec-08 16:00N 44°43' E 037°47'0 0.0
2017-Dec-08 15:30N 44°43' E 037°47'0 0.0
2017-Dec-08 15:01N 44°43' E 037°47'0 0.0
2017-Dec-08 14:31N 44°43' E 037°47'0 0.0
2017-Dec-08 14:01N 44°43' E 037°47'0 0.0
2017-Dec-08 13:30N 44°43' E 037°47'0 0.0
2017-Dec-08 13:01N 44°43' E 037°47'0 0.0
2017-Dec-08 12:31N 44°43' E 037°47'0 0.0
2017-Dec-08 12:01N 44°43' E 037°47'0 0.0
2017-Dec-08 11:31N 44°43' E 037°47'0 0.0
2017-Dec-08 11:01N 44°43' E 037°47'0 0.0
2017-Dec-08 10:31N 44°43' E 037°47'0 0.0
2017-Dec-08 10:01N 44°43' E 037°47'0 0.0
2017-Dec-08 09:31N 44°43' E 037°47'0 0.0
2017-Dec-08 09:01N 44°43' E 037°47'0 0.0
2017-Dec-08 08:31N 44°43' E 037°47'0 0.0
2017-Dec-08 08:00N 44°43' E 037°47'0 0.0
2017-Dec-08 07:30N 44°43' E 037°47'0 0.0
2017-Dec-08 07:00N 44°43' E 037°47'0 0.0
2017-Dec-08 06:30N 44°43' E 037°47'0 0.0
2017-Dec-08 06:01N 44°43' E 037°47'0 0.0
2017-Dec-08 05:31N 44°43' E 037°47'0 0.0
2017-Dec-08 05:01N 44°43' E 037°47'0 0.0
2017-Dec-08 04:30N 44°43' E 037°47'0 0.0
2017-Dec-08 04:01N 44°43' E 037°47'0 0.0
2017-Dec-08 03:30N 44°43' E 037°47'0 0.0
2017-Dec-08 03:01N 44°43' E 037°47'0 0.0
2017-Dec-08 02:30N 44°43' E 037°47'0 0.0
2017-Dec-08 02:00N 44°43' E 037°47'0 0.0
2017-Dec-08 01:31N 44°43' E 037°47'0 0.0
2017-Dec-08 01:01N 44°43' E 037°47'0 0.0
2017-Dec-08 00:31N 44°43' E 037°47'0 0.0
2017-Dec-08 00:00N 44°43' E 037°47'0 0.0
2017-Dec-07 23:30N 44°43' E 037°47'0 0.4
2017-Dec-07 23:01N 44°43' E 037°47'2 3.0
2017-Dec-07 22:31N 44°43' E 037°49'4 7.5
2017-Dec-07 22:01N 44°39' E 037°51'5 9.7
2017-Dec-07 21:31N 44°34' E 037°51'510.2
2017-Dec-07 21:01N 44°30' E 037°48'510.4
2017-Dec-07 20:30N 44°25' E 037°43'  
Track history (hours):
 
Tides and Currents Weather Stations Pressure Air Temp Water Temp Dewpoint Dewpoint Depression Visibility Wind Speed Wind Dir Waves Ship Positions

Margaux

Last reported at 2017-Dec-16 21:42 UTC. Time now 2017-Dec-17 04:29 UTC.
Position N 35°37' E 027°30'.

Length 126 m; draft 8 m.

Type: Cargo ship. MMSI: 671782000.

Date/timePositionNaut miles runAvg speedWind from/ knotsBaromVisibWave heightAir tempDewpointWater temp
2017-Dec-16 21:42N 35°37' E 027°30'7510.2
2017-Dec-16 14:18N 36°43' E 026°46'710.5
2017-Dec-16 13:35N 36°50' E 026°42'110.4
2017-Dec-16 13:29N 36°51' E 026°42'7 9.9
2017-Dec-16 12:49N 36°57' E 026°38'4 9.8
2017-Dec-16 12:26N 37°00' E 026°36'410.1
2017-Dec-16 12:00N 37°04' E 026°34'510.4
2017-Dec-16 11:31N 37°08' E 026°30'510.5
2017-Dec-16 11:00N 37°12' E 026°25'510.3
2017-Dec-16 10:30N 37°14' E 026°19'510.2
2017-Dec-16 10:01N 37°17' E 026°14'510.4
2017-Dec-16 09:31N 37°20' E 026°08'510.1
2017-Dec-16 09:01N 37°22' E 026°03'5 9.9
2017-Dec-16 08:31N 37°26' E 025°58'510.3
2017-Dec-16 08:01N 37°30' E 025°56'610.3
2017-Dec-16 07:28N 37°36' E 025°54'7 9.7
2017-Dec-16 06:46N 37°42' E 025°52'7 9.6
2017-Dec-16 06:05N 37°49' E 025°51'1 9.8
2017-Dec-16 06:01N 37°50' E 025°50'510.0
2017-Dec-16 05:30N 37°55' E 025°49'228 8.4
2017-Dec-15 02:30N 40°54' E 028°51'43511.0
2017-Dec-13 10:55N 44°31' E 037°24'511.8
2017-Dec-13 10:31N 44°32' E 037°30'611.8
2017-Dec-13 10:01N 44°33' E 037°38'612.3
2017-Dec-13 09:31N 44°36' E 037°46'5 9.5
2017-Dec-13 09:00N 44°39' E 037°50'4 7.7
2017-Dec-13 08:31N 44°43' E 037°48'1 2.6
2017-Dec-13 08:01N 44°43' E 037°47'0 0.0
2017-Dec-13 07:31N 44°43' E 037°47'0 0.0
2017-Dec-13 07:01N 44°43' E 037°47'0 0.0
2017-Dec-13 06:31N 44°43' E 037°47'0 0.0
2017-Dec-13 06:01N 44°43' E 037°47'0 0.0
2017-Dec-13 05:31N 44°43' E 037°47'0 0.0
2017-Dec-13 05:01N 44°43' E 037°47'0 0.0
2017-Dec-13 04:31N 44°43' E 037°47'0 0.0
2017-Dec-13 04:01N 44°43' E 037°47'0 0.0
2017-Dec-13 03:31N 44°43' E 037°47'0 0.0
2017-Dec-13 03:00N 44°43' E 037°47'0 0.0
2017-Dec-13 02:31N 44°43' E 037°47'0 0.0
2017-Dec-13 02:01N 44°43' E 037°47'0 0.0
2017-Dec-13 01:31N 44°43' E 037°47'0 0.0
2017-Dec-13 01:01N 44°43' E 037°47'0 0.0
2017-Dec-13 00:31N 44°43' E 037°47'0 0.0
2017-Dec-13 00:00N 44°43' E 037°47'0 0.0
2017-Dec-12 23:31N 44°43' E 037°47'0 0.0
2017-Dec-12 23:01N 44°43' E 037°47'0 0.0
2017-Dec-12 22:31N 44°43' E 037°47'0 0.0
2017-Dec-12 22:01N 44°43' E 037°47'0 0.0
2017-Dec-12 21:31N 44°43' E 037°47'0 0.0
2017-Dec-12 21:01N 44°43' E 037°47'0 0.0
2017-Dec-12 20:31N 44°43' E 037°47'0 0.0
2017-Dec-12 20:01N 44°43' E 037°47'0 0.0
2017-Dec-12 19:31N 44°43' E 037°47'0 0.0
2017-Dec-12 19:01N 44°43' E 037°47'0 0.0
2017-Dec-12 18:31N 44°43' E 037°47'0 0.0
2017-Dec-12 18:01N 44°43' E 037°47'0 0.0
2017-Dec-12 17:31N 44°43' E 037°47'0 0.0
2017-Dec-12 17:01N 44°43' E 037°47'0 0.0
2017-Dec-12 16:31N 44°43' E 037°47'0 0.0
2017-Dec-12 16:01N 44°43' E 037°47'0 0.0
2017-Dec-12 15:31N 44°43' E 037°47'0 0.0
2017-Dec-12 15:01N 44°43' E 037°47'0 0.0
2017-Dec-12 14:31N 44°43' E 037°47'0 0.0
2017-Dec-12 14:01N 44°43' E 037°47'0 0.0
2017-Dec-12 13:31N 44°43' E 037°47'0 0.0
2017-Dec-12 13:00N 44°43' E 037°47'0 0.0
2017-Dec-12 12:31N 44°43' E 037°47'0 0.0
2017-Dec-12 12:01N 44°43' E 037°47'0 0.0
2017-Dec-12 11:31N 44°43' E 037°47'0 0.0
2017-Dec-12 11:00N 44°43' E 037°47'0 0.0
2017-Dec-12 10:31N 44°43' E 037°47'0 0.0
2017-Dec-12 10:01N 44°43' E 037°47'0 0.0
2017-Dec-12 09:31N 44°43' E 037°47'0 0.0
2017-Dec-12 09:01N 44°43' E 037°47'0 0.0
2017-Dec-12 08:31N 44°43' E 037°47'0 0.0
2017-Dec-12 08:01N 44°43' E 037°47'0 0.0
2017-Dec-12 07:31N 44°43' E 037°47'0 0.0
2017-Dec-12 07:01N 44°43' E 037°47'0 0.0
2017-Dec-12 06:31N 44°43' E 037°47'0 0.0
2017-Dec-12 06:01N 44°43' E 037°47'0 0.0
2017-Dec-12 05:31N 44°43' E 037°47'0 0.0
2017-Dec-12 05:01N 44°43' E 037°47'0 0.0
2017-Dec-12 04:31N 44°43' E 037°47'0 0.0
2017-Dec-12 04:01N 44°43' E 037°47'0 0.0
2017-Dec-12 03:31N 44°43' E 037°47'0 0.0
2017-Dec-12 03:01N 44°43' E 037°47'0 0.0
2017-Dec-12 02:31N 44°43' E 037°47'0 0.0
2017-Dec-12 02:01N 44°43' E 037°47'0 0.0
2017-Dec-12 01:31N 44°43' E 037°47'0 0.0
2017-Dec-12 01:01N 44°43' E 037°47'0 0.0
2017-Dec-12 00:30N 44°43' E 037°47'0 0.0
2017-Dec-12 00:01N 44°43' E 037°47'0 0.0
2017-Dec-11 23:31N 44°43' E 037°47'0 0.0
2017-Dec-11 23:01N 44°43' E 037°47'0 0.0
2017-Dec-11 22:31N 44°43' E 037°47'0 0.0
2017-Dec-11 22:01N 44°43' E 037°47'0 0.0
2017-Dec-11 21:31N 44°43' E 037°47'0 0.0
2017-Dec-11 21:01N 44°43' E 037°47'0 0.0
2017-Dec-11 20:31N 44°43' E 037°47'0 0.0
2017-Dec-11 20:01N 44°43' E 037°47'0 0.0
2017-Dec-11 19:31N 44°43' E 037°47'0 0.0
2017-Dec-11 19:01N 44°43' E 037°47'0 0.0
2017-Dec-11 18:31N 44°43' E 037°47'0 0.0
2017-Dec-11 18:01N 44°43' E 037°47'0 0.0
2017-Dec-11 17:31N 44°43' E 037°47'0 0.0
2017-Dec-11 17:01N 44°43' E 037°47'0 0.0
2017-Dec-11 16:31N 44°43' E 037°47'0 0.0
2017-Dec-11 16:01N 44°43' E 037°47'0 0.0
2017-Dec-11 15:31N 44°43' E 037°47'0 0.0
2017-Dec-11 15:01N 44°43' E 037°47'0 0.0
2017-Dec-11 14:31N 44°43' E 037°47'0 0.0
2017-Dec-11 14:01N 44°43' E 037°47'0 0.0
2017-Dec-11 13:31N 44°43' E 037°47'0 0.0
2017-Dec-11 13:01N 44°43' E 037°47'0 0.0
2017-Dec-11 12:31N 44°43' E 037°47'0 0.0
2017-Dec-11 12:01N 44°43' E 037°47'0 0.0
2017-Dec-11 11:31N 44°43' E 037°47'0 0.0
2017-Dec-11 11:01N 44°43' E 037°47'0 0.0
2017-Dec-11 10:31N 44°43' E 037°47'0 0.0
2017-Dec-11 10:01N 44°43' E 037°47'0 0.0
2017-Dec-11 09:31N 44°43' E 037°47'0 0.0
2017-Dec-11 09:00N 44°43' E 037°47'0 0.0
2017-Dec-11 08:30N 44°43' E 037°47'0 0.0
2017-Dec-11 08:01N 44°43' E 037°47'0 0.0
2017-Dec-11 07:30N 44°43' E 037°47'0 0.0
2017-Dec-11 07:01N 44°43' E 037°47'0 0.0
2017-Dec-11 06:31N 44°43' E 037°47'0 0.0
2017-Dec-11 06:01N 44°43' E 037°47'0 0.0
2017-Dec-11 05:31N 44°43' E 037°47'0 0.0
2017-Dec-11 05:01N 44°43' E 037°47'0 0.0
2017-Dec-11 04:31N 44°43' E 037°47'0 0.0
2017-Dec-11 04:01N 44°43' E 037°47'0 0.0
2017-Dec-11 03:31N 44°43' E 037°47'0 0.0
2017-Dec-11 03:01N 44°43' E 037°47'0 0.0
2017-Dec-11 02:31N 44°43' E 037°47'0 0.0
2017-Dec-11 02:01N 44°43' E 037°47'0 0.0
2017-Dec-11 01:31N 44°43' E 037°47'0 0.0
2017-Dec-11 01:01N 44°43' E 037°47'0 0.0
2017-Dec-11 00:30N 44°43' E 037°47'0 0.0
2017-Dec-11 00:01N 44°43' E 037°47'0 0.0
2017-Dec-10 23:31N 44°43' E 037°47'0 0.0
2017-Dec-10 23:01N 44°43' E 037°47'0 0.0
2017-Dec-10 22:31N 44°43' E 037°47'0 0.0
2017-Dec-10 22:01N 44°43' E 037°47'0 0.0
2017-Dec-10 21:31N 44°43' E 037°47'0 0.0
2017-Dec-10 21:01N 44°43' E 037°47'0 0.0
2017-Dec-10 20:13N 44°43' E 037°47'0 0.0
2017-Dec-10 20:01N 44°43' E 037°47'0 0.0
2017-Dec-10 19:31N 44°43' E 037°47'0 0.0
2017-Dec-10 19:01N 44°43' E 037°47'0 0.0
2017-Dec-10 18:31N 44°43' E 037°47'0 0.0
2017-Dec-10 18:00N 44°43' E 037°47'0 0.0
2017-Dec-10 17:31N 44°43' E 037°47'0 0.0
2017-Dec-10 17:00N 44°43' E 037°47'0 0.0
2017-Dec-10 16:31N 44°43' E 037°47'0 0.0
2017-Dec-10 16:00N 44°43' E 037°47'0 0.0
2017-Dec-10 15:31N 44°43' E 037°47'0 0.0
2017-Dec-10 15:00N 44°43' E 037°47'0 0.0
2017-Dec-10 14:31N 44°43' E 037°47'0 0.0
2017-Dec-10 14:01N 44°43' E 037°47'0 0.0
2017-Dec-10 13:31N 44°43' E 037°47'0 0.0
2017-Dec-10 13:01N 44°43' E 037°47'0 0.0
2017-Dec-10 12:31N 44°43' E 037°47'0 0.0
2017-Dec-10 12:01N 44°43' E 037°47'0 0.0
2017-Dec-10 11:31N 44°43' E 037°47'0 0.0
2017-Dec-10 11:01N 44°43' E 037°47'0 0.0
2017-Dec-10 10:30N 44°43' E 037°47'0 0.0
2017-Dec-10 10:01N 44°43' E 037°47'0 0.0
2017-Dec-10 09:31N 44°43' E 037°47'0 0.0
2017-Dec-10 09:01N 44°43' E 037°47'0 0.0
2017-Dec-10 08:31N 44°43' E 037°47'0 0.0
2017-Dec-10 08:01N 44°43' E 037°47'0 0.0
2017-Dec-10 07:31N 44°43' E 037°47'0 0.0
2017-Dec-10 07:01N 44°43' E 037°47'0 0.0
2017-Dec-10 06:31N 44°43' E 037°47'0 0.0
2017-Dec-10 06:01N 44°43' E 037°47'0 0.0
2017-Dec-10 05:31N 44°43' E 037°47'0 0.0
2017-Dec-10 05:01N 44°43' E 037°47'0 0.0
2017-Dec-10 04:31N 44°43' E 037°47'0 0.0
2017-Dec-10 04:01N 44°43' E 037°47'0 0.0
2017-Dec-10 03:31N 44°43' E 037°47'0 0.0
2017-Dec-10 03:00N 44°43' E 037°47'0 0.0
2017-Dec-10 02:30N 44°43' E 037°47'0 0.0
2017-Dec-10 02:01N 44°43' E 037°47'0 0.0
2017-Dec-10 01:31N 44°43' E 037°47'0 0.0
2017-Dec-10 01:01N 44°43' E 037°47'0 0.0
2017-Dec-10 00:31N 44°43' E 037°47'0 0.0
2017-Dec-10 00:01N 44°43' E 037°47'0 0.0
2017-Dec-09 23:31N 44°43' E 037°47'0 0.0
2017-Dec-09 23:01N 44°43' E 037°47'0 0.0
2017-Dec-09 22:31N 44°43' E 037°47'0 0.0
2017-Dec-09 22:01N 44°43' E 037°47'0 0.0
2017-Dec-09 21:24N 44°43' E 037°47'0 0.0
2017-Dec-09 21:01N 44°43' E 037°47'0 0.0
2017-Dec-09 20:31N 44°43' E 037°47'0 0.0
2017-Dec-09 20:01N 44°43' E 037°47'0 0.0
2017-Dec-09 19:31N 44°43' E 037°47'0 0.0
2017-Dec-09 19:01N 44°43' E 037°47'0 0.0
2017-Dec-09 18:31N 44°43' E 037°47'0 0.0
2017-Dec-09 18:01N 44°43' E 037°47'0 0.0
2017-Dec-09 17:31N 44°43' E 037°47'0 0.0
2017-Dec-09 17:01N 44°43' E 037°47'0 0.0
2017-Dec-09 16:31N 44°43' E 037°47'0 0.0
2017-Dec-09 16:00N 44°43' E 037°47'0 0.0
2017-Dec-09 15:31N 44°43' E 037°47'0 0.0
2017-Dec-09 15:00N 44°43' E 037°47'0 0.0
2017-Dec-09 14:31N 44°43' E 037°47'0 0.0
2017-Dec-09 14:01N 44°43' E 037°47'0 0.0
2017-Dec-09 13:31N 44°43' E 037°47'0 0.0
2017-Dec-09 13:01N 44°43' E 037°47'0 0.0
2017-Dec-09 12:31N 44°43' E 037°47'0 0.0
2017-Dec-09 12:01N 44°43' E 037°47'0 0.0
2017-Dec-09 11:31N 44°43' E 037°47'0 0.0
2017-Dec-09 11:01N 44°43' E 037°47'0 0.0
2017-Dec-09 10:31N 44°43' E 037°47'0 0.0
2017-Dec-09 10:01N 44°43' E 037°47'0 0.0
2017-Dec-09 09:31N 44°43' E 037°47'0 0.0
2017-Dec-09 09:01N 44°43' E 037°47'0 0.0
2017-Dec-09 08:31N 44°43' E 037°47'0 0.0
2017-Dec-09 08:01N 44°43' E 037°47'0 0.0
2017-Dec-09 07:31N 44°43' E 037°47'0 0.0
2017-Dec-09 07:01N 44°43' E 037°47'0 0.0
2017-Dec-09 06:31N 44°43' E 037°47'0 0.0
2017-Dec-09 06:01N 44°43' E 037°47'0 0.0
2017-Dec-09 05:30N 44°43' E 037°47'0 0.0
2017-Dec-09 05:01N 44°43' E 037°47'0 0.0
2017-Dec-09 04:31N 44°43' E 037°47'0 0.0
2017-Dec-09 04:01N 44°43' E 037°47'0 0.0
2017-Dec-09 03:31N 44°43' E 037°47'0 0.0
2017-Dec-09 03:00N 44°43' E 037°47'0 0.0
2017-Dec-09 02:31N 44°43' E 037°47'0 0.0
2017-Dec-09 02:01N 44°43' E 037°47'0 0.0
2017-Dec-09 01:31N 44°43' E 037°47'0 0.0
2017-Dec-09 01:01N 44°43' E 037°47'0 0.0
2017-Dec-09 00:31N 44°43' E 037°47'0 0.0
2017-Dec-09 00:00N 44°43' E 037°47'0 0.0
2017-Dec-08 23:31N 44°43' E 037°47'0 0.0
2017-Dec-08 23:00N 44°43' E 037°47'0 0.0
2017-Dec-08 22:30N 44°43' E 037°47'0 0.0
2017-Dec-08 22:01N 44°43' E 037°47'0 0.0
2017-Dec-08 21:31N 44°43' E 037°47'0 0.0
2017-Dec-08 21:00N 44°43' E 037°47'0 0.0
2017-Dec-08 20:31N 44°43' E 037°47'0 0.0
2017-Dec-08 20:01N 44°43' E 037°47'0 0.0
2017-Dec-08 19:30N 44°43' E 037°47'0 0.0
2017-Dec-08 19:01N 44°43' E 037°47'0 0.0
2017-Dec-08 18:31N 44°43' E 037°47'0 0.0
2017-Dec-08 18:01N 44°43' E 037°47'0 0.0
2017-Dec-08 17:31N 44°43' E 037°47'0 0.0
2017-Dec-08 17:00N 44°43' E 037°47'0 0.0
2017-Dec-08 16:31N 44°43' E 037°47'0 0.0
2017-Dec-08 16:00N 44°43' E 037°47'0 0.0
2017-Dec-08 15:30N 44°43' E 037°47'0 0.0
2017-Dec-08 15:01N 44°43' E 037°47'0 0.0
2017-Dec-08 14:31N 44°43' E 037°47'0 0.0
2017-Dec-08 14:01N 44°43' E 037°47'0 0.0
2017-Dec-08 13:30N 44°43' E 037°47'0 0.0
2017-Dec-08 13:01N 44°43' E 037°47'0 0.0
2017-Dec-08 12:31N 44°43' E 037°47'0 0.0
2017-Dec-08 12:01N 44°43' E 037°47'0 0.0
2017-Dec-08 11:31N 44°43' E 037°47'0 0.0
2017-Dec-08 11:01N 44°43' E 037°47'0 0.0
2017-Dec-08 10:31N 44°43' E 037°47'0 0.0
2017-Dec-08 10:01N 44°43' E 037°47'0 0.0
2017-Dec-08 09:31N 44°43' E 037°47'0 0.0
2017-Dec-08 09:01N 44°43' E 037°47'0 0.0
2017-Dec-08 08:31N 44°43' E 037°47'0 0.0
2017-Dec-08 08:00N 44°43' E 037°47'0 0.0
2017-Dec-08 07:30N 44°43' E 037°47'0 0.0
2017-Dec-08 07:00N 44°43' E 037°47'0 0.0
2017-Dec-08 06:30N 44°43' E 037°47'0 0.0
2017-Dec-08 06:01N 44°43' E 037°47'0 0.0
2017-Dec-08 05:31N 44°43' E 037°47'0 0.0
2017-Dec-08 05:01N 44°43' E 037°47'0 0.0
2017-Dec-08 04:30N 44°43' E 037°47'0 0.0
2017-Dec-08 04:01N 44°43' E 037°47'0 0.0
2017-Dec-08 03:30N 44°43' E 037°47'0 0.0
2017-Dec-08 03:01N 44°43' E 037°47'0 0.0
2017-Dec-08 02:30N 44°43' E 037°47'0 0.0
2017-Dec-08 02:00N 44°43' E 037°47'0 0.0
2017-Dec-08 01:31N 44°43' E 037°47'0 0.0
2017-Dec-08 01:01N 44°43' E 037°47'0 0.0
2017-Dec-08 00:31N 44°43' E 037°47'0 0.0
2017-Dec-08 00:00N 44°43' E 037°47'0 0.0
2017-Dec-07 23:30N 44°43' E 037°47'0 0.4
2017-Dec-07 23:01N 44°43' E 037°47'2 3.0
2017-Dec-07 22:31N 44°43' E 037°49'4 7.5
2017-Dec-07 22:01N 44°39' E 037°51'5 9.7
2017-Dec-07 21:31N 44°34' E 037°51'510.2
2017-Dec-07 21:01N 44°30' E 037°48'510.4
2017-Dec-07 20:30N 44°25' E 037°43'  

Dump ship's entire track history